Goshen, Vermont
Current Conditions -  °F | °C
As of 2:55 AM on Friday 31 Oct 2014 (Local Time) from K6B0 Reporting Station
Overcast Overcast  
Wind Chill: 40°   Ceiling: 3900
Heat Index: 40°   Visibility: 10mi
Dew Point: 36°   Wind: 0mph
Humidity: 83%   Direction: NA
Pressure: 30.01"   Gusts: NA
Location:  43.8209°N, 73.0875°W
Report Text: K6B0 310655Z AUTO 00000KT 10SM BKN039 OVC046 05/02 A3001 RMK AO2 T00470021
Loading
Personal Weather Stations






























Interactive Weather Map
Tropical Storm Tracking
New forecast layout! Learn more

10-Day Weather Forecast

Advertisements
Track Severe Weather on mobile